Time;durP1;ratioP1;P1;durP2;ratioP2;P2;SDS_P1;SDS_P2;PMS_P1;PMS_P2;Temp;Humidity;BMP_temperature;BMP_pressure;BME280_temperature;BME280_humidity;BME280_pressure;Samples;Min_cycle;Max_cycle;Signal;HPM_P1;HPM_P2
2021/10/25 00:02:08;;;;;;;25.60;14.50;;;;;;;-128.00;-1.00;-1.00;133762;1200;1097010;-82
2021/10/25 00:05:13;;;;;;;25.20;14.50;;;;;;;-128.00;-1.00;-1.00;133768;1200;1095825;-81
2021/10/25 00:08:19;;;;;;;24.80;15.00;;;;;;;-128.00;-1.00;-1.00;133746;1201;1096185;-82
2021/10/25 00:11:24;;;;;;;27.00;14.10;;;;;;;-128.00;-1.00;-1.00;133744;1200;1096147;-81
2021/10/25 00:14:30;;;;;;;28.90;15.10;;;;;;;-128.00;-1.00;-1.00;133769;1200;1094037;-82
2021/10/25 00:17:35;;;;;;;23.60;13.50;;;;;;;-128.00;-1.00;-1.00;133842;1200;1096718;-81
2021/10/25 00:20:40;;;;;;;28.70;15.10;;;;;;;-128.00;-1.00;-1.00;133821;1200;1096416;-83
2021/10/25 00:23:46;;;;;;;25.60;14.20;;;;;;;-128.00;-1.00;-1.00;133758;1200;1096543;-82
2021/10/25 00:26:52;;;;;;;22.10;12.10;;;;;;;-128.00;-1.00;-1.00;133732;1200;1095638;-82
2021/10/25 00:29:57;;;;;;;25.80;13.70;;;;;;;-128.00;-1.00;-1.00;133722;1200;1096687;-82
2021/10/25 00:33:03;;;;;;;25.00;13.80;;;;;;;-128.00;-1.00;-1.00;133767;1201;1096396;-81
2021/10/25 00:36:10;;;;;;;24.40;13.40;;;;;;;-128.00;-1.00;-1.00;133725;1200;1096488;-81
2021/10/25 00:39:15;;;;;;;26.00;14.00;;;;;;;-128.00;-1.00;-1.00;133726;1200;1095538;-81
2021/10/25 00:42:21;;;;;;;23.70;13.50;;;;;;;-128.00;-1.00;-1.00;133827;1200;1097439;-82
2021/10/25 00:45:26;;;;;;;25.80;13.90;;;;;;;-128.00;-1.00;-1.00;133679;1200;1096724;-83
2021/10/25 00:48:31;;;;;;;26.60;14.00;;;;;;;-128.00;-1.00;-1.00;133716;1202;1099128;-81
2021/10/25 00:51:39;;;;;;;24.40;13.30;;;;;;;-128.00;-1.00;-1.00;133764;1200;1097305;-80
2021/10/25 00:54:44;;;;;;;22.80;12.80;;;;;;;-128.00;-1.00;-1.00;133770;1200;1097255;-79
2021/10/25 00:57:50;;;;;;;25.80;14.00;;;;;;;-128.00;-1.00;-1.00;133573;1200;1096860;-80
2021/10/25 01:00:55;;;;;;;25.10;13.20;;;;;;;-128.00;-1.00;-1.00;133824;1201;1096214;-83
2021/10/25 01:04:02;;;;;;;27.90;13.50;;;;;;;-128.00;-1.00;-1.00;133934;1200;1096720;-82
2021/10/25 01:07:07;;;;;;;21.10;11.00;;;;;;;-128.00;-1.00;-1.00;133800;1201;1096596;-82
2021/10/25 01:10:13;;;;;;;22.40;12.10;;;;;;;-128.00;-1.00;-1.00;133763;1200;1096182;-81
2021/10/25 01:13:19;;;;;;;22.70;13.00;;;;;;;-128.00;-1.00;-1.00;133843;1208;1096204;-81
2021/10/25 01:16:25;;;;;;;23.40;12.70;;;;;;;-128.00;-1.00;-1.00;133755;1200;1096824;-80
2021/10/25 01:19:31;;;;;;;24.30;13.10;;;;;;;-128.00;-1.00;-1.00;133724;1200;1096943;-83
2021/10/25 01:22:37;;;;;;;23.20;12.60;;;;;;;-128.00;-1.00;-1.00;133702;1201;1096627;-82
2021/10/25 01:25:42;;;;;;;22.30;12.30;;;;;;;-128.00;-1.00;-1.00;133691;1200;1096362;-79
2021/10/25 01:28:48;;;;;;;21.60;11.80;;;;;;;-128.00;-1.00;-1.00;133813;1200;1096565;-79
2021/10/25 01:31:54;;;;;;;20.50;12.10;;;;;;;-128.00;-1.00;-1.00;133677;1200;1096148;-79
2021/10/25 01:35:01;;;;;;;23.20;12.90;;;;;;;-128.00;-1.00;-1.00;133774;1200;1096227;-79
2021/10/25 01:38:06;;;;;;;22.00;12.40;;;;;;;-128.00;-1.00;-1.00;134758;1202;1097517;-85
2021/10/25 01:41:14;;;;;;;24.60;12.90;;;;;;;-128.00;-1.00;-1.00;135079;1200;1097320;-83
2021/10/25 01:44:19;;;;;;;25.10;13.60;;;;;;;-128.00;-1.00;-1.00;134135;1200;1094167;-83
2021/10/25 01:47:25;;;;;;;24.20;13.00;;;;;;;-128.00;-1.00;-1.00;133873;1203;1096068;-84
2021/10/25 01:50:32;;;;;;;19.40;10.10;;;;;;;-128.00;-1.00;-1.00;134493;1200;1093862;-80
2021/10/25 01:53:38;;;;;;;19.80;11.40;;;;;;;-128.00;-1.00;-1.00;134155;1200;1096925;-80
2021/10/25 01:56:44;;;;;;;20.00;11.40;;;;;;;-128.00;-1.00;-1.00;134007;1202;1096269;-83
2021/10/25 01:59:49;;;;;;;20.00;11.30;;;;;;;-128.00;-1.00;-1.00;133775;1203;1096191;-82
2021/10/25 02:02:56;;;;;;;21.30;11.20;;;;;;;-128.00;-1.00;-1.00;133768;1200;1096200;-80
2021/10/25 02:06:28;;;;;;;18.90;10.60;;;;;;;-128.00;-1.00;-1.00;133630;1208;1096951;-78
2021/10/25 02:09:34;;;;;;;19.30;11.20;;;;;;;-128.00;-1.00;-1.00;133762;1203;1094983;-77
2021/10/25 02:12:39;;;;;;;19.40;11.20;;;;;;;-128.00;-1.00;-1.00;134131;1190;1097293;-78
2021/10/25 02:15:46;;;;;;;24.00;11.70;;;;;;;-128.00;-1.00;-1.00;133662;1200;1096362;-82
2021/10/25 02:18:53;;;;;;;19.10;11.00;;;;;;;-128.00;-1.00;-1.00;133708;1200;1094185;-83
2021/10/25 02:22:03;;;;;;;21.30;10.90;;;;;;;-128.00;-1.00;-1.00;133782;1200;1094594;-82
2021/10/25 02:25:10;;;;;;;22.10;11.00;;;;;;;-128.00;-1.00;-1.00;133743;1202;1095559;-81
2021/10/25 02:28:16;;;;;;;20.30;10.40;;;;;;;-128.00;-1.00;-1.00;133818;1201;1095910;-81
2021/10/25 02:31:24;;;;;;;15.00;8.50;;;;;;;-128.00;-1.00;-1.00;133741;1200;1097169;-81
2021/10/25 02:34:29;;;;;;;19.40;10.10;;;;;;;-128.00;-1.00;-1.00;134295;1200;1096345;-81
2021/10/25 02:37:35;;;;;;;19.80;10.40;;;;;;;-128.00;-1.00;-1.00;134093;1200;1095799;-79
2021/10/25 02:40:40;;;;;;;17.90;10.40;;;;;;;-128.00;-1.00;-1.00;133739;1203;1096808;-78
2021/10/25 02:43:46;;;;;;;19.60;10.70;;;;;;;-128.00;-1.00;-1.00;133870;1203;1097316;-79
2021/10/25 02:46:51;;;;;;;20.40;10.40;;;;;;;-128.00;-1.00;-1.00;133625;1201;1097413;-79
2021/10/25 02:49:57;;;;;;;19.30;10.30;;;;;;;-128.00;-1.00;-1.00;133690;1202;1094340;-77
2021/10/25 02:53:07;;;;;;;18.00;10.30;;;;;;;-128.00;-1.00;-1.00;133661;1203;1096171;-80
2021/10/25 02:56:13;;;;;;;21.20;11.30;;;;;;;-128.00;-1.00;-1.00;133548;1203;1096296;-80
2021/10/25 02:59:32;;;;;;;22.60;11.50;;;;;;;-128.00;-1.00;-1.00;133669;1202;1094319;-80
2021/10/25 03:02:39;;;;;;;22.60;11.30;;;;;;;-128.00;-1.00;-1.00;133706;1202;1093413;-79
2021/10/25 03:05:46;;;;;;;16.80;9.20;;;;;;;-128.00;-1.00;-1.00;133638;1203;1093881;-79
2021/10/25 03:08:51;;;;;;;20.90;10.20;;;;;;;-128.00;-1.00;-1.00;134345;1202;1096531;-80
2021/10/25 03:11:57;;;;;;;21.60;11.30;;;;;;;-128.00;-1.00;-1.00;134114;1203;1096882;-82
2021/10/25 03:15:02;;;;;;;20.90;11.60;;;;;;;-128.00;-1.00;-1.00;133621;1208;1096978;-79
2021/10/25 03:18:08;;;;;;;20.10;11.40;;;;;;;-128.00;-1.00;-1.00;133546;1203;1096412;-79
2021/10/25 03:21:15;;;;;;;22.60;11.10;;;;;;;-128.00;-1.00;-1.00;133641;1202;1096956;-80
2021/10/25 03:24:21;;;;;;;20.50;10.30;;;;;;;-128.00;-1.00;-1.00;133720;1202;1096338;-79
2021/10/25 03:27:27;;;;;;;24.20;12.80;;;;;;;-128.00;-1.00;-1.00;133907;1202;1097015;-79
2021/10/25 03:30:32;;;;;;;19.80;11.30;;;;;;;-128.00;-1.00;-1.00;133667;1203;1094033;-80
2021/10/25 03:33:40;;;;;;;17.40;9.50;;;;;;;-128.00;-1.00;-1.00;133719;1203;1096171;-80
2021/10/25 03:37:00;;;;;;;21.80;10.50;;;;;;;-128.00;-1.00;-1.00;133734;1202;1096667;-77
2021/10/25 03:40:08;;;;;;;19.90;11.10;;;;;;;-128.00;-1.00;-1.00;133586;1206;1095590;-79
2021/10/25 03:43:14;;;;;;;19.20;10.50;;;;;;;-128.00;-1.00;-1.00;133682;1202;1094363;-78
2021/10/25 03:46:28;;;;;;;17.60;10.20;;;;;;;-128.00;-1.00;-1.00;133573;1203;1095577;-78
2021/10/25 03:49:38;;;;;;;21.90;11.10;;;;;;;-128.00;-1.00;-1.00;133598;1202;1096955;-82
2021/10/25 03:53:11;;;;;;;20.50;11.20;;;;;;;-128.00;-1.00;-1.00;133721;1203;1097544;-83
2021/10/25 03:56:27;;;;;;;20.30;11.40;;;;;;;-128.00;-1.00;-1.00;133660;1187;1096952;-81
2021/10/25 03:59:46;;;;;;;26.80;12.50;;;;;;;-128.00;-1.00;-1.00;133699;1204;1097676;-82
2021/10/25 04:27:15;;;;;;;19.00;10.40;;;;;;;-128.00;-1.00;-1.00;133620;1208;1097353;-77
2021/10/25 04:30:21;;;;;;;20.90;11.90;;;;;;;-128.00;-1.00;-1.00;133745;1202;1095942;-77
2021/10/25 04:33:27;;;;;;;18.40;11.10;;;;;;;-128.00;-1.00;-1.00;133754;1202;1093394;-81
2021/10/25 04:36:52;;;;;;;20.70;11.00;;;;;;;-128.00;-1.00;-1.00;133609;1203;1096574;-78
2021/10/25 04:40:20;;;;;;;21.80;11.50;;;;;;;-128.00;-1.00;-1.00;133763;1203;1096295;-78
2021/10/25 04:43:26;;;;;;;20.10;11.20;;;;;;;-128.00;-1.00;-1.00;133676;1206;1096342;-80
2021/10/25 04:46:31;;;;;;;15.90;9.20;;;;;;;-128.00;-1.00;-1.00;133571;1203;1096827;-79
2021/10/25 04:49:36;;;;;;;18.90;10.20;;;;;;;-128.00;-1.00;-1.00;133610;1202;1097311;-77
2021/10/25 04:53:01;;;;;;;17.20;9.80;;;;;;;-128.00;-1.00;-1.00;133626;1208;1097246;-77
2021/10/25 04:56:08;;;;;;;20.60;11.20;;;;;;;-128.00;-1.00;-1.00;133759;1203;1097273;-79
2021/10/25 04:59:13;;;;;;;19.60;10.80;;;;;;;-128.00;-1.00;-1.00;133593;1204;1096383;-81
2021/10/25 05:02:20;;;;;;;19.10;10.70;;;;;;;-128.00;-1.00;-1.00;133620;1203;1096816;-78
2021/10/25 05:05:28;;;;;;;21.10;10.20;;;;;;;-128.00;-1.00;-1.00;133658;1203;1096313;-80
2021/10/25 05:08:33;;;;;;;18.20;10.60;;;;;;;-128.00;-1.00;-1.00;133673;1202;1093986;-78
2021/10/25 05:11:39;;;;;;;20.80;11.60;;;;;;;-128.00;-1.00;-1.00;133569;1206;1096345;-81
2021/10/25 05:14:45;;;;;;;21.20;12.40;;;;;;;-128.00;-1.00;-1.00;133617;1203;1096663;-83
2021/10/25 05:17:52;;;;;;;21.80;12.10;;;;;;;-128.00;-1.00;-1.00;133770;1203;1096249;-82
2021/10/25 05:20:57;;;;;;;17.90;10.00;;;;;;;-128.00;-1.00;-1.00;133623;1203;1096886;-79
2021/10/25 05:24:03;;;;;;;21.70;11.70;;;;;;;-128.00;-1.00;-1.00;133686;1203;1096693;-77
2021/10/25 05:27:09;;;;;;;19.30;10.40;;;;;;;-128.00;-1.00;-1.00;133593;1203;1095763;-78
2021/10/25 05:30:15;;;;;;;19.10;11.40;;;;;;;-128.00;-1.00;-1.00;133572;1202;1096657;-77
2021/10/25 05:33:20;;;;;;;20.90;12.20;;;;;;;-128.00;-1.00;-1.00;133580;1202;1095882;-78
2021/10/25 05:36:26;;;;;;;25.50;12.20;;;;;;;-128.00;-1.00;-1.00;133790;1208;1097000;-83
2021/10/25 05:39:32;;;;;;;19.90;11.70;;;;;;;-128.00;-1.00;-1.00;133724;1202;1096613;-79
2021/10/25 05:42:38;;;;;;;24.10;12.80;;;;;;;-128.00;-1.00;-1.00;133676;1203;1096812;-80
2021/10/25 05:45:43;;;;;;;23.80;13.50;;;;;;;-128.00;-1.00;-1.00;134009;1201;1095977;-83
2021/10/25 05:48:51;;;;;;;26.60;13.90;;;;;;;-128.00;-1.00;-1.00;133563;1203;1097907;-81
2021/10/25 05:51:58;;;;;;;21.50;13.00;;;;;;;-128.00;-1.00;-1.00;133727;1202;1093855;-80
2021/10/25 05:55:05;;;;;;;20.30;10.60;;;;;;;-128.00;-1.00;-1.00;133696;1204;1097276;-80
2021/10/25 05:58:17;;;;;;;23.70;12.50;;;;;;;-128.00;-1.00;-1.00;133745;1203;1094475;-80
2021/10/25 06:01:27;;;;;;;24.20;12.20;;;;;;;-128.00;-1.00;-1.00;133810;1202;1096273;-81
2021/10/25 06:04:36;;;;;;;23.30;13.30;;;;;;;-128.00;-1.00;-1.00;134179;1193;1095047;-81
2021/10/25 06:07:55;;;;;;;20.60;12.10;;;;;;;-128.00;-1.00;-1.00;133778;1200;1097119;-82
2021/10/25 06:11:01;;;;;;;21.90;12.90;;;;;;;-128.00;-1.00;-1.00;133775;1200;1097126;-81
2021/10/25 06:14:07;;;;;;;25.70;13.30;;;;;;;-128.00;-1.00;-1.00;133778;1201;1095798;-81
2021/10/25 06:17:23;;;;;;;24.60;13.50;;;;;;;-128.00;-1.00;-1.00;133775;1200;1096843;-79
2021/10/25 06:20:31;;;;;;;28.50;14.00;;;;;;;-128.00;-1.00;-1.00;133673;1200;1096139;-83
2021/10/25 06:23:37;;;;;;;27.90;14.90;;;;;;;-128.00;-1.00;-1.00;133693;1201;1094355;-79
2021/10/25 06:26:47;;;;;;;20.20;11.00;;;;;;;-128.00;-1.00;-1.00;133819;1200;1097007;-80
2021/10/25 06:29:52;;;;;;;23.10;13.10;;;;;;;-128.00;-1.00;-1.00;133812;1200;1096701;-79
2021/10/25 06:32:58;;;;;;;21.80;12.40;;;;;;;-128.00;-1.00;-1.00;133662;1206;1096514;-78
2021/10/25 06:36:22;;;;;;;20.20;11.90;;;;;;;-128.00;-1.00;-1.00;133726;1201;1097197;-78
2021/10/25 06:39:38;;;;;;;25.10;13.30;;;;;;;-128.00;-1.00;-1.00;133853;1200;1096985;-81
2021/10/25 06:42:45;;;;;;;26.70;14.30;;;;;;;-128.00;-1.00;-1.00;133738;1200;1093893;-79
2021/10/25 06:45:54;;;;;;;26.60;14.50;;;;;;;-128.00;-1.00;-1.00;133743;1203;1096848;-80
2021/10/25 06:49:00;;;;;;;28.80;15.00;;;;;;;-128.00;-1.00;-1.00;133689;1206;1096230;-82
2021/10/25 06:52:07;;;;;;;26.20;14.60;;;;;;;-128.00;-1.00;-1.00;133704;1201;1094186;-82
2021/10/25 06:55:13;;;;;;;22.50;12.20;;;;;;;-128.00;-1.00;-1.00;133726;1200;1096028;-80
2021/10/25 06:58:22;;;;;;;23.30;13.10;;;;;;;-128.00;-1.00;-1.00;133862;1200;1096317;-81
2021/10/25 07:01:28;;;;;;;25.10;13.60;;;;;;;-128.00;-1.00;-1.00;133730;1200;1096673;-83
2021/10/25 07:04:34;;;;;;;23.50;13.20;;;;;;;-128.00;-1.00;-1.00;133859;1208;1096615;-81
2021/10/25 07:07:41;;;;;;;22.50;13.10;;;;;;;-128.00;-1.00;-1.00;133710;1202;1096326;-80
2021/10/25 07:10:47;;;;;;;23.50;13.80;;;;;;;-128.00;-1.00;-1.00;133755;1200;1095679;-81
2021/10/25 07:13:53;;;;;;;29.50;13.80;;;;;;;-128.00;-1.00;-1.00;133722;1199;1096438;-80
2021/10/25 07:17:12;;;;;;;24.90;13.70;;;;;;;-128.00;-1.00;-1.00;133720;1203;1097336;-81
2021/10/25 07:26:10;;;;;;;21.40;11.60;;;;;;;-128.00;-1.00;-1.00;133761;1203;1097007;-80
2021/10/25 08:08:45;;;;;;;21.00;13.20;;;;;;;-128.00;-1.00;-1.00;133737;1203;1096371;-81
2021/10/25 08:11:54;;;;;;;23.00;12.40;;;;;;;-128.00;-1.00;-1.00;133741;1200;1096388;-80
2021/10/25 08:15:03;;;;;;;23.20;12.50;;;;;;;-128.00;-1.00;-1.00;133741;1206;1097030;-83
2021/10/25 08:18:22;;;;;;;21.40;12.10;;;;;;;-128.00;-1.00;-1.00;133760;1202;1093851;-81
2021/10/25 08:21:27;;;;;;;23.30;12.70;;;;;;;-128.00;-1.00;-1.00;133754;1200;1097118;-79
2021/10/25 08:24:35;;;;;;;21.20;12.80;;;;;;;-128.00;-1.00;-1.00;133740;1203;1094898;-79
2021/10/25 08:27:46;;;;;;;21.50;12.60;;;;;;;-128.00;-1.00;-1.00;133899;1200;1096763;-80
2021/10/25 08:30:52;;;;;;;22.60;13.10;;;;;;;-128.00;-1.00;-1.00;133706;1203;1096777;-81
2021/10/25 08:40:51;;;;;;;22.10;11.90;;;;;;;-128.00;-1.00;-1.00;133573;1202;1096840;-81
2021/10/25 08:43:58;;;;;;;19.60;11.00;;;;;;;-128.00;-1.00;-1.00;133590;1203;1098077;-80
2021/10/25 08:47:04;;;;;;;20.10;11.20;;;;;;;-128.00;-1.00;-1.00;133703;1200;1094800;-80
2021/10/25 08:50:12;;;;;;;18.00;11.70;;;;;;;-128.00;-1.00;-1.00;133652;1202;1097171;-81
2021/10/25 08:53:18;;;;;;;22.30;12.70;;;;;;;-128.00;-1.00;-1.00;133673;1200;1094177;-79
2021/10/25 08:56:28;;;;;;;21.60;12.90;;;;;;;-128.00;-1.00;-1.00;133729;1202;1097317;-81
2021/10/25 08:59:58;;;;;;;21.60;12.50;;;;;;;-128.00;-1.00;-1.00;133912;1200;1097237;-79
2021/10/25 09:03:05;;;;;;;23.80;12.60;;;;;;;-128.00;-1.00;-1.00;133743;1200;1094253;-79
2021/10/25 09:06:14;;;;;;;19.20;13.10;;;;;;;-128.00;-1.00;-1.00;133700;1203;1095879;-79
2021/10/25 09:09:22;;;;;;;21.30;12.00;;;;;;;-128.00;-1.00;-1.00;133886;1200;1094174;-80
2021/10/25 09:12:35;;;;;;;20.00;11.20;;;;;;;-128.00;-1.00;-1.00;133688;1203;1094153;-79
2021/10/25 09:15:45;;;;;;;21.70;11.70;;;;;;;-128.00;-1.00;-1.00;133741;1200;1094773;-80
2021/10/25 09:19:19;;;;;;;20.50;12.10;;;;;;;-128.00;-1.00;-1.00;133746;1201;1097183;-81
2021/10/25 09:22:25;;;;;;;18.30;11.10;;;;;;;-128.00;-1.00;-1.00;133755;1201;1096986;-81
2021/10/25 09:25:36;;;;;;;17.90;11.80;;;;;;;-128.00;-1.00;-1.00;133785;1202;1095687;-80
2021/10/25 09:28:45;;;;;;;20.30;11.70;;;;;;;-128.00;-1.00;-1.00;133754;1200;1095812;-80
2021/10/25 09:31:57;;;;;;;17.50;11.20;;;;;;;-128.00;-1.00;-1.00;133760;1200;1094404;-80
2021/10/25 09:35:05;;;;;;;20.50;11.80;;;;;;;-128.00;-1.00;-1.00;133735;1203;1093679;-79
2021/10/25 09:38:45;;;;;;;17.70;10.50;;;;;;;-128.00;-1.00;-1.00;133744;1203;1096837;-81
2021/10/25 09:42:17;;;;;;;18.80;10.30;;;;;;;-128.00;-1.00;-1.00;133799;1200;1096372;-81
2021/10/25 09:49:12;;;;;;;16.10;9.20;;;;;;;-128.00;-1.00;-1.00;133747;1203;1094630;-80
2021/10/25 09:52:27;;;;;;;17.40;10.40;;;;;;;-128.00;-1.00;-1.00;133775;1203;1093606;-81
2021/10/25 09:55:44;;;;;;;19.30;10.60;;;;;;;-128.00;-1.00;-1.00;133922;1200;1096490;-81
2021/10/25 09:58:56;;;;;;;17.70;10.60;;;;;;;-128.00;-1.00;-1.00;133799;1201;1094416;-81
2021/10/25 10:02:03;;;;;;;17.00;9.90;;;;;;;-128.00;-1.00;-1.00;133722;1200;1096110;-81
2021/10/25 10:05:13;;;;;;;19.00;10.70;;;;;;;-128.00;-1.00;-1.00;133717;1203;1093813;-81
2021/10/25 10:08:20;;;;;;;18.90;10.00;;;;;;;-128.00;-1.00;-1.00;133948;1200;1096164;-81
2021/10/25 10:11:26;;;;;;;16.60;10.40;;;;;;;-128.00;-1.00;-1.00;133751;1200;1093890;-81
2021/10/25 10:14:32;;;;;;;15.70;10.10;;;;;;;-128.00;-1.00;-1.00;133688;1202;1095891;-81
2021/10/25 10:17:48;;;;;;;17.50;10.60;;;;;;;-128.00;-1.00;-1.00;133965;1200;1094940;-81
2021/10/25 10:20:57;;;;;;;16.40;9.90;;;;;;;-128.00;-1.00;-1.00;133789;1200;1093565;-83
2021/10/25 10:24:08;;;;;;;17.50;9.70;;;;;;;-128.00;-1.00;-1.00;133754;1202;1094276;-81
2021/10/25 10:27:19;;;;;;;19.00;10.00;;;;;;;-128.00;-1.00;-1.00;133751;1203;1095818;-81
2021/10/25 10:30:25;;;;;;;17.90;9.70;;;;;;;-128.00;-1.00;-1.00;133740;1200;1096262;-82
2021/10/25 10:33:46;;;;;;;15.40;8.60;;;;;;;-128.00;-1.00;-1.00;133724;1201;1095278;-81
2021/10/25 10:36:53;;;;;;;21.30;8.80;;;;;;;-128.00;-1.00;-1.00;133738;1200;1095101;-82
2021/10/25 10:40:11;;;;;;;12.80;7.50;;;;;;;-128.00;-1.00;-1.00;133683;1202;1094500;-82
2021/10/25 10:44:03;;;;;;;14.40;7.50;;;;;;;-128.00;-1.00;-1.00;133526;1206;1096850;-83
2021/10/25 10:47:18;;;;;;;14.20;7.70;;;;;;;-128.00;-1.00;-1.00;133689;1203;1094219;-81
2021/10/25 10:50:31;;;;;;;13.30;8.20;;;;;;;-128.00;-1.00;-1.00;133905;1200;1094660;-81
2021/10/25 10:53:39;;;;;;;15.50;8.00;;;;;;;-128.00;-1.00;-1.00;133789;1201;1094094;-81
2021/10/25 10:56:56;;;;;;;14.40;7.80;;;;;;;-128.00;-1.00;-1.00;133780;1200;1095472;-82
2021/10/25 11:00:05;;;;;;;14.10;7.30;;;;;;;-128.00;-1.00;-1.00;133708;1200;1096869;-81
2021/10/25 11:03:21;;;;;;;13.90;7.30;;;;;;;-128.00;-1.00;-1.00;133822;1200;1095900;-79
2021/10/25 11:06:31;;;;;;;13.70;7.50;;;;;;;-128.00;-1.00;-1.00;133672;1203;1093466;-80
2021/10/25 11:09:37;;;;;;;13.10;7.60;;;;;;;-128.00;-1.00;-1.00;133730;1201;1094971;-80
2021/10/25 11:12:45;;;;;;;12.80;7.00;;;;;;;-128.00;-1.00;-1.00;133839;1200;1096987;-80
2021/10/25 11:15:55;;;;;;;11.20;7.00;;;;;;;-128.00;-1.00;-1.00;133721;1200;1093619;-82
2021/10/25 11:19:03;;;;;;;11.20;6.40;;;;;;;-128.00;-1.00;-1.00;133873;1200;1094590;-88
2021/10/25 11:22:09;;;;;;;12.00;6.80;;;;;;;-128.00;-1.00;-1.00;133759;1200;1094704;-81
2021/10/25 11:25:14;;;;;;;13.90;6.60;;;;;;;-128.00;-1.00;-1.00;133737;1200;1098065;-82
2021/10/25 11:28:21;;;;;;;10.30;6.30;;;;;;;-128.00;-1.00;-1.00;133919;1200;1096084;-80
2021/10/25 11:31:28;;;;;;;10.60;6.20;;;;;;;-128.00;-1.00;-1.00;133752;1201;1096636;-82
2021/10/25 11:34:36;;;;;;;11.40;6.40;;;;;;;-128.00;-1.00;-1.00;133764;1200;1094215;-82
2021/10/25 11:37:49;;;;;;;12.10;7.00;;;;;;;-128.00;-1.00;-1.00;133973;1200;1093898;-82
2021/10/25 11:40:55;;;;;;;11.10;6.50;;;;;;;-128.00;-1.00;-1.00;133718;1202;1096575;-82
2021/10/25 11:44:00;;;;;;;14.00;6.40;;;;;;;-128.00;-1.00;-1.00;133705;1201;1096775;-82
2021/10/25 11:47:16;;;;;;;10.00;5.90;;;;;;;-128.00;-1.00;-1.00;133707;1203;1097290;-82
2021/10/25 11:50:23;;;;;;;11.40;6.00;;;;;;;-128.00;-1.00;-1.00;133742;1203;1096285;-81
2021/10/25 11:53:32;;;;;;;10.90;6.10;;;;;;;-128.00;-1.00;-1.00;133881;1200;1093817;-81
2021/10/25 11:56:38;;;;;;;9.80;5.90;;;;;;;-128.00;-1.00;-1.00;133843;1200;1095743;-82
2021/10/25 11:59:43;;;;;;;11.90;5.70;;;;;;;-128.00;-1.00;-1.00;133732;1201;1097176;-81
2021/10/25 12:02:49;;;;;;;10.00;5.50;;;;;;;-128.00;-1.00;-1.00;133701;1193;1096755;-82
2021/10/25 12:05:55;;;;;;;10.70;6.00;;;;;;;-128.00;-1.00;-1.00;133679;1201;1096999;-81
2021/10/25 12:09:04;;;;;;;12.10;6.00;;;;;;;-128.00;-1.00;-1.00;133687;1200;1096088;-81
2021/10/25 12:12:13;;;;;;;11.10;6.50;;;;;;;-128.00;-1.00;-1.00;133745;1203;1096883;-80
2021/10/25 12:15:20;;;;;;;10.20;6.30;;;;;;;-128.00;-1.00;-1.00;133853;1200;1098323;-81
2021/10/25 12:18:27;;;;;;;10.40;6.10;;;;;;;-128.00;-1.00;-1.00;133758;1202;1096398;-81
2021/10/25 12:21:36;;;;;;;10.00;6.40;;;;;;;-128.00;-1.00;-1.00;133788;1190;1095174;-82
2021/10/25 12:24:44;;;;;;;10.90;6.00;;;;;;;-128.00;-1.00;-1.00;133737;1203;1096110;-82
2021/10/25 12:27:50;;;;;;;10.50;6.00;;;;;;;-128.00;-1.00;-1.00;133772;1200;1093384;-82
2021/10/25 12:31:09;;;;;;;9.60;5.40;;;;;;;-128.00;-1.00;-1.00;133714;1200;1096065;-82
2021/10/25 12:34:16;;;;;;;12.70;6.40;;;;;;;-128.00;-1.00;-1.00;133746;1200;1093783;-81
2021/10/25 12:37:24;;;;;;;10.20;5.90;;;;;;;-128.00;-1.00;-1.00;133727;1200;1096790;-82
2021/10/25 12:40:37;;;;;;;9.40;5.40;;;;;;;-128.00;-1.00;-1.00;133743;1200;1093675;-81
2021/10/25 12:43:44;;;;;;;10.60;5.50;;;;;;;-128.00;-1.00;-1.00;133692;1200;1096829;-81
2021/10/25 12:46:51;;;;;;;10.30;6.00;;;;;;;-128.00;-1.00;-1.00;133699;1200;1094272;-82
2021/10/25 12:49:58;;;;;;;10.60;5.60;;;;;;;-128.00;-1.00;-1.00;133862;1200;1096651;-79
2021/10/25 12:53:07;;;;;;;7.80;4.90;;;;;;;-128.00;-1.00;-1.00;133859;1200;1096829;-76
2021/10/25 12:56:12;;;;;;;9.30;5.40;;;;;;;-128.00;-1.00;-1.00;133667;1200;1095502;-83
2021/10/25 12:59:20;;;;;;;8.20;5.10;;;;;;;-128.00;-1.00;-1.00;133813;1200;1096283;-81
2021/10/25 13:02:28;;;;;;;10.40;5.10;;;;;;;-128.00;-1.00;-1.00;133800;1200;1096050;-79
2021/10/25 13:05:37;;;;;;;8.90;5.00;;;;;;;-128.00;-1.00;-1.00;133797;1203;1094558;-81
2021/10/25 13:08:42;;;;;;;8.30;5.00;;;;;;;-128.00;-1.00;-1.00;133752;1200;1095075;-82
2021/10/25 13:11:48;;;;;;;9.30;5.60;;;;;;;-128.00;-1.00;-1.00;133933;1200;1096052;-83
2021/10/25 13:14:55;;;;;;;9.20;5.70;;;;;;;-128.00;-1.00;-1.00;133754;1200;1096396;-84
2021/10/25 13:18:03;;;;;;;8.80;5.10;;;;;;;-128.00;-1.00;-1.00;133868;1200;1096003;-84
2021/10/25 13:21:08;;;;;;;10.10;5.00;;;;;;;-128.00;-1.00;-1.00;133668;1205;1097175;-80
2021/10/25 13:24:14;;;;;;;10.10;5.10;;;;;;;-128.00;-1.00;-1.00;133840;1200;1096988;-82
2021/10/25 13:27:20;;;;;;;9.10;5.10;;;;;;;-128.00;-1.00;-1.00;133675;1200;1097913;-83
2021/10/25 13:30:27;;;;;;;11.60;5.30;;;;;;;-128.00;-1.00;-1.00;133710;1200;1097086;-82
2021/10/25 13:33:34;;;;;;;10.50;5.50;;;;;;;-128.00;-1.00;-1.00;133835;1200;1097000;-79
2021/10/25 13:36:40;;;;;;;8.70;5.40;;;;;;;-128.00;-1.00;-1.00;133639;1187;1093621;-83
2021/10/25 13:39:46;;;;;;;9.40;5.10;;;;;;;-128.00;-1.00;-1.00;133672;1201;1097111;-84
2021/10/25 13:42:52;;;;;;;8.30;5.10;;;;;;;-128.00;-1.00;-1.00;133808;1201;1096976;-82
2021/10/25 13:45:57;;;;;;;9.50;5.40;;;;;;;-128.00;-1.00;-1.00;133688;1200;1096786;-82
2021/10/25 13:49:04;;;;;;;9.20;5.00;;;;;;;-128.00;-1.00;-1.00;133964;1200;1096233;-83
2021/10/25 13:52:10;;;;;;;8.00;5.00;;;;;;;-128.00;-1.00;-1.00;133727;1200;1096530;-76
2021/10/25 13:55:15;;;;;;;10.80;5.30;;;;;;;-128.00;-1.00;-1.00;133627;1201;1096158;-85
2021/10/25 13:58:21;;;;;;;11.20;5.40;;;;;;;-128.00;-1.00;-1.00;133955;1200;1096903;-82
2021/10/25 14:01:26;;;;;;;9.30;5.30;;;;;;;-128.00;-1.00;-1.00;133733;1200;1098645;-81
2021/10/25 14:04:32;;;;;;;12.70;6.10;;;;;;;-128.00;-1.00;-1.00;133802;1200;1096869;-81
2021/10/25 14:07:38;;;;;;;14.30;6.00;;;;;;;-128.00;-1.00;-1.00;133708;1201;1096452;-82
2021/10/25 14:10:45;;;;;;;12.20;6.20;;;;;;;-128.00;-1.00;-1.00;133893;1200;1096919;-81
2021/10/25 14:14:05;;;;;;;13.30;7.00;;;;;;;-128.00;-1.00;-1.00;133742;1200;1096635;-82
2021/10/25 14:17:10;;;;;;;9.10;5.60;;;;;;;-128.00;-1.00;-1.00;133821;1201;1096360;-81
2021/10/25 14:20:17;;;;;;;13.40;6.80;;;;;;;-128.00;-1.00;-1.00;133804;1200;1096455;-81
2021/10/25 14:23:22;;;;;;;8.70;5.20;;;;;;;-128.00;-1.00;-1.00;133650;1200;1094031;-79
2021/10/25 14:26:28;;;;;;;9.80;5.40;;;;;;;-128.00;-1.00;-1.00;133645;1200;1096597;-81
2021/10/25 14:29:33;;;;;;;11.90;5.70;;;;;;;-128.00;-1.00;-1.00;133794;1200;1095544;-80
2021/10/25 14:32:39;;;;;;;9.40;5.60;;;;;;;-128.00;-1.00;-1.00;134129;1200;1098491;-81
2021/10/25 14:35:44;;;;;;;9.80;5.40;;;;;;;-128.00;-1.00;-1.00;133914;1200;1096586;-80
2021/10/25 14:39:00;;;;;;;9.80;5.50;;;;;;;-128.00;-1.00;-1.00;133874;1200;1096098;-78
2021/10/25 14:42:11;;;;;;;8.10;4.80;;;;;;;-128.00;-1.00;-1.00;133636;1200;1097003;-81
2021/10/25 14:45:19;;;;;;;8.80;4.90;;;;;;;-128.00;-1.00;-1.00;134015;1200;1095917;-80
2021/10/25 14:48:38;;;;;;;8.80;5.10;;;;;;;-128.00;-1.00;-1.00;133955;1201;1097019;-80
2021/10/25 14:55:12;;;;;;;8.00;5.20;;;;;;;-128.00;-1.00;-1.00;133875;1200;1097347;-80
2021/10/25 14:58:17;;;;;;;8.30;5.00;;;;;;;-128.00;-1.00;-1.00;134077;1200;1097375;-81
2021/10/25 15:01:23;;;;;;;12.80;6.30;;;;;;;-128.00;-1.00;-1.00;134000;1203;1096662;-83
2021/10/25 15:04:28;;;;;;;11.20;7.60;;;;;;;-128.00;-1.00;-1.00;133765;1200;1096878;-81
2021/10/25 15:07:34;;;;;;;10.50;6.80;;;;;;;-128.00;-1.00;-1.00;133789;1200;1096299;-83
2021/10/25 15:10:39;;;;;;;11.80;7.70;;;;;;;-128.00;-1.00;-1.00;133856;1200;1097734;-81
2021/10/25 15:13:44;;;;;;;13.70;7.80;;;;;;;-128.00;-1.00;-1.00;133786;1200;1098528;-81
2021/10/25 15:16:50;;;;;;;15.30;9.50;;;;;;;-128.00;-1.00;-1.00;133823;1200;1097763;-82
2021/10/25 15:19:55;;;;;;;13.40;7.30;;;;;;;-128.00;-1.00;-1.00;133746;1200;1096566;-82
2021/10/25 15:23:01;;;;;;;11.40;6.90;;;;;;;-128.00;-1.00;-1.00;133824;1200;1095800;-81
2021/10/25 15:26:06;;;;;;;9.20;6.10;;;;;;;-128.00;-1.00;-1.00;133809;1205;1097506;-79
2021/10/25 15:29:12;;;;;;;13.80;9.50;;;;;;;-128.00;-1.00;-1.00;133753;1200;1098015;-81
2021/10/25 15:32:19;;;;;;;17.50;12.30;;;;;;;-128.00;-1.00;-1.00;133869;1200;1096463;-81
2021/10/25 15:35:25;;;;;;;10.20;6.40;;;;;;;-128.00;-1.00;-1.00;133796;1200;1096390;-81